sensor_id;sensor_type;location;lat;lon;timestamp;P1;durP1;ratioP1;P2;durP2;ratioP2
39524;SDS011;25203;50.754;6.978;2023-03-14T00:00:54;8.15;;;2.30;;
39524;SDS011;25203;50.754;6.978;2023-03-14T00:02:55;4.18;;;1.58;;
39524;SDS011;25203;50.754;6.978;2023-03-14T00:04:56;8.32;;;1.60;;
39524;SDS011;25203;50.754;6.978;2023-03-14T00:06:56;9.15;;;2.33;;
39524;SDS011;25203;50.754;6.978;2023-03-14T00:08:57;5.38;;;1.83;;
39524;SDS011;25203;50.754;6.978;2023-03-14T00:11:03;11.80;;;1.83;;
39524;SDS011;25203;50.754;6.978;2023-03-14T00:13:08;12.68;;;2.50;;
39524;SDS011;25203;50.754;6.978;2023-03-14T00:15:09;7.13;;;1.70;;
39524;SDS011;25203;50.754;6.978;2023-03-14T00:17:11;8.15;;;1.95;;
39524;SDS011;25203;50.754;6.978;2023-03-14T00:19:13;9.23;;;2.72;;
39524;SDS011;25203;50.754;6.978;2023-03-14T00:21:14;10.48;;;2.70;;
39524;SDS011;25203;50.754;6.978;2023-03-14T00:23:15;10.52;;;2.40;;
39524;SDS011;25203;50.754;6.978;2023-03-14T00:25:16;6.57;;;2.00;;
39524;SDS011;25203;50.754;6.978;2023-03-14T00:27:16;8.82;;;2.28;;
39524;SDS011;25203;50.754;6.978;2023-03-14T00:29:17;7.05;;;2.40;;
39524;SDS011;25203;50.754;6.978;2023-03-14T00:31:17;6.45;;;1.60;;
39524;SDS011;25203;50.754;6.978;2023-03-14T00:33:18;4.93;;;1.90;;
39524;SDS011;25203;50.754;6.978;2023-03-14T00:35:19;8.32;;;2.03;;
39524;SDS011;25203;50.754;6.978;2023-03-14T00:37:19;7.40;;;2.20;;
39524;SDS011;25203;50.754;6.978;2023-03-14T00:39:20;7.80;;;2.05;;
39524;SDS011;25203;50.754;6.978;2023-03-14T00:41:22;7.78;;;1.75;;
39524;SDS011;25203;50.754;6.978;2023-03-14T00:43:23;7.75;;;1.92;;
39524;SDS011;25203;50.754;6.978;2023-03-14T00:45:24;9.73;;;1.58;;
39524;SDS011;25203;50.754;6.978;2023-03-14T00:47:24;6.35;;;1.50;;
39524;SDS011;25203;50.754;6.978;2023-03-14T00:49:25;7.13;;;1.92;;
39524;SDS011;25203;50.754;6.978;2023-03-14T00:51:26;6.13;;;1.75;;
39524;SDS011;25203;50.754;6.978;2023-03-14T00:53:26;6.93;;;1.52;;
39524;SDS011;25203;50.754;6.978;2023-03-14T00:55:27;7.38;;;2.25;;
39524;SDS011;25203;50.754;6.978;2023-03-14T00:57:27;6.45;;;1.58;;
39524;SDS011;25203;50.754;6.978;2023-03-14T00:59:28;9.43;;;2.13;;
39524;SDS011;25203;50.754;6.978;2023-03-14T01:01:29;7.10;;;1.85;;
39524;SDS011;25203;50.754;6.978;2023-03-14T01:03:29;8.10;;;1.65;;
39524;SDS011;25203;50.754;6.978;2023-03-14T01:05:30;9.48;;;1.70;;
39524;SDS011;25203;50.754;6.978;2023-03-14T01:07:31;9.27;;;1.85;;
39524;SDS011;25203;50.754;6.978;2023-03-14T01:09:31;5.88;;;1.98;;
39524;SDS011;25203;50.754;6.978;2023-03-14T01:11:33;8.48;;;1.75;;
39524;SDS011;25203;50.754;6.978;2023-03-14T01:13:35;5.22;;;1.33;;
39524;SDS011;25203;50.754;6.978;2023-03-14T01:15:36;9.65;;;1.77;;
39524;SDS011;25203;50.754;6.978;2023-03-14T01:17:38;6.80;;;1.92;;
39524;SDS011;25203;50.754;6.978;2023-03-14T01:19:39;6.85;;;1.83;;
39524;SDS011;25203;50.754;6.978;2023-03-14T01:21:40;6.85;;;1.80;;
39524;SDS011;25203;50.754;6.978;2023-03-14T01:23:40;8.25;;;1.55;;
39524;SDS011;25203;50.754;6.978;2023-03-14T01:25:42;5.35;;;1.80;;
39524;SDS011;25203;50.754;6.978;2023-03-14T01:27:43;8.20;;;1.90;;
39524;SDS011;25203;50.754;6.978;2023-03-14T01:29:44;4.97;;;1.67;;
39524;SDS011;25203;50.754;6.978;2023-03-14T01:31:47;7.30;;;2.60;;
39524;SDS011;25203;50.754;6.978;2023-03-14T01:33:47;7.47;;;2.25;;
39524;SDS011;25203;50.754;6.978;2023-03-14T01:35:49;4.63;;;1.55;;
39524;SDS011;25203;50.754;6.978;2023-03-14T01:37:50;8.90;;;2.22;;
39524;SDS011;25203;50.754;6.978;2023-03-14T01:39:50;7.57;;;1.67;;
39524;SDS011;25203;50.754;6.978;2023-03-14T01:41:51;8.73;;;2.58;;
39524;SDS011;25203;50.754;6.978;2023-03-14T01:43:52;9.57;;;2.15;;
39524;SDS011;25203;50.754;6.978;2023-03-14T01:48:02;7.75;;;1.90;;
39524;SDS011;25203;50.754;6.978;2023-03-14T01:50:04;11.30;;;2.72;;
39524;SDS011;25203;50.754;6.978;2023-03-14T01:52:11;8.38;;;1.63;;
39524;SDS011;25203;50.754;6.978;2023-03-14T01:56:25;6.60;;;1.40;;
39524;SDS011;25203;50.754;6.978;2023-03-14T01:58:26;1.98;;;0.70;;
39524;SDS011;25203;50.754;6.978;2023-03-14T02:00:29;7.15;;;1.52;;
39524;SDS011;25203;50.754;6.978;2023-03-14T02:02:30;5.18;;;1.05;;
39524;SDS011;25203;50.754;6.978;2023-03-14T02:04:32;6.78;;;1.48;;
39524;SDS011;25203;50.754;6.978;2023-03-14T02:06:38;2.63;;;0.90;;
39524;SDS011;25203;50.754;6.978;2023-03-14T02:08:46;2.70;;;1.00;;
39524;SDS011;25203;50.754;6.978;2023-03-14T02:10:49;3.70;;;1.23;;
39524;SDS011;25203;50.754;6.978;2023-03-14T02:12:50;7.63;;;2.22;;
39524;SDS011;25203;50.754;6.978;2023-03-14T02:14:53;6.13;;;2.08;;
39524;SDS011;25203;50.754;6.978;2023-03-14T02:16:53;10.82;;;2.58;;
39524;SDS011;25203;50.754;6.978;2023-03-14T02:18:54;5.65;;;1.63;;
39524;SDS011;25203;50.754;6.978;2023-03-14T02:25:51;9.25;;;1.83;;
39524;SDS011;25203;50.754;6.978;2023-03-14T02:28:01;4.65;;;1.77;;
39524;SDS011;25203;50.754;6.978;2023-03-14T02:30:08;9.77;;;1.73;;
39524;SDS011;25203;50.754;6.978;2023-03-14T02:32:15;11.73;;;2.20;;
39524;SDS011;25203;50.754;6.978;2023-03-14T02:34:17;6.60;;;1.48;;
39524;SDS011;25203;50.754;6.978;2023-03-14T02:36:18;7.75;;;2.05;;
39524;SDS011;25203;50.754;6.978;2023-03-14T02:40:33;5.68;;;1.67;;
39524;SDS011;25203;50.754;6.978;2023-03-14T02:42:33;14.55;;;2.58;;
39524;SDS011;25203;50.754;6.978;2023-03-14T02:44:34;9.98;;;2.38;;
39524;SDS011;25203;50.754;6.978;2023-03-14T02:46:35;10.75;;;2.42;;
39524;SDS011;25203;50.754;6.978;2023-03-14T02:48:38;6.70;;;1.77;;
39524;SDS011;25203;50.754;6.978;2023-03-14T02:50:43;6.15;;;1.88;;
39524;SDS011;25203;50.754;6.978;2023-03-14T02:52:45;7.65;;;1.83;;
39524;SDS011;25203;50.754;6.978;2023-03-14T02:54:46;14.90;;;2.67;;
39524;SDS011;25203;50.754;6.978;2023-03-14T02:56:46;7.90;;;2.40;;
39524;SDS011;25203;50.754;6.978;2023-03-14T02:58:47;10.82;;;2.10;;
39524;SDS011;25203;50.754;6.978;2023-03-14T03:00:48;12.38;;;2.35;;
39524;SDS011;25203;50.754;6.978;2023-03-14T03:02:48;11.90;;;2.83;;
39524;SDS011;25203;50.754;6.978;2023-03-14T03:04:49;8.38;;;1.88;;
39524;SDS011;25203;50.754;6.978;2023-03-14T03:06:50;12.35;;;2.60;;
39524;SDS011;25203;50.754;6.978;2023-03-14T03:08:50;10.57;;;2.10;;
39524;SDS011;25203;50.754;6.978;2023-03-14T03:10:51;8.38;;;2.35;;
39524;SDS011;25203;50.754;6.978;2023-03-14T03:12:52;7.13;;;2.17;;
39524;SDS011;25203;50.754;6.978;2023-03-14T03:14:52;9.57;;;2.35;;
39524;SDS011;25203;50.754;6.978;2023-03-14T03:16:53;6.47;;;2.20;;
39524;SDS011;25203;50.754;6.978;2023-03-14T03:18:53;8.02;;;2.22;;
39524;SDS011;25203;50.754;6.978;2023-03-14T03:20:54;8.32;;;2.17;;
39524;SDS011;25203;50.754;6.978;2023-03-14T03:22:54;9.18;;;1.95;;
39524;SDS011;25203;50.754;6.978;2023-03-14T03:24:55;8.57;;;1.98;;
39524;SDS011;25203;50.754;6.978;2023-03-14T03:26:56;9.30;;;2.47;;
39524;SDS011;25203;50.754;6.978;2023-03-14T03:28:56;11.02;;;2.30;;
39524;SDS011;25203;50.754;6.978;2023-03-14T03:30:57;7.82;;;2.03;;
39524;SDS011;25203;50.754;6.978;2023-03-14T03:32:57;8.02;;;2.13;;
39524;SDS011;25203;50.754;6.978;2023-03-14T03:34:58;8.48;;;2.25;;
39524;SDS011;25203;50.754;6.978;2023-03-14T03:36:59;9.50;;;1.88;;
39524;SDS011;25203;50.754;6.978;2023-03-14T03:38:59;10.88;;;2.17;;
39524;SDS011;25203;50.754;6.978;2023-03-14T03:41:04;8.38;;;2.83;;
39524;SDS011;25203;50.754;6.978;2023-03-14T03:43:06;6.43;;;1.60;;
39524;SDS011;25203;50.754;6.978;2023-03-14T03:45:07;9.48;;;1.88;;
39524;SDS011;25203;50.754;6.978;2023-03-14T03:47:08;7.85;;;1.92;;
39524;SDS011;25203;50.754;6.978;2023-03-14T03:49:09;9.35;;;2.08;;
39524;SDS011;25203;50.754;6.978;2023-03-14T03:51:13;6.85;;;1.90;;
39524;SDS011;25203;50.754;6.978;2023-03-14T03:53:15;11.93;;;2.03;;
39524;SDS011;25203;50.754;6.978;2023-03-14T03:55:15;4.88;;;1.98;;
39524;SDS011;25203;50.754;6.978;2023-03-14T03:57:16;7.82;;;1.95;;
39524;SDS011;25203;50.754;6.978;2023-03-14T03:59:17;4.25;;;1.55;;
39524;SDS011;25203;50.754;6.978;2023-03-14T04:01:18;9.05;;;2.15;;
39524;SDS011;25203;50.754;6.978;2023-03-14T04:03:18;4.30;;;1.58;;
39524;SDS011;25203;50.754;6.978;2023-03-14T04:05:19;7.65;;;1.63;;
39524;SDS011;25203;50.754;6.978;2023-03-14T04:07:19;5.15;;;1.98;;
39524;SDS011;25203;50.754;6.978;2023-03-14T04:09:20;6.75;;;1.75;;
39524;SDS011;25203;50.754;6.978;2023-03-14T04:11:21;6.15;;;1.92;;
39524;SDS011;25203;50.754;6.978;2023-03-14T04:13:21;6.13;;;1.52;;
39524;SDS011;25203;50.754;6.978;2023-03-14T04:15:22;8.68;;;1.60;;
39524;SDS011;25203;50.754;6.978;2023-03-14T04:17:22;5.25;;;1.17;;
39524;SDS011;25203;50.754;6.978;2023-03-14T04:19:23;7.30;;;1.80;;
39524;SDS011;25203;50.754;6.978;2023-03-14T04:21:24;6.00;;;1.60;;
39524;SDS011;25203;50.754;6.978;2023-03-14T04:23:24;7.38;;;1.27;;
39524;SDS011;25203;50.754;6.978;2023-03-14T04:25:25;3.65;;;1.23;;
39524;SDS011;25203;50.754;6.978;2023-03-14T04:27:26;5.07;;;1.35;;
39524;SDS011;25203;50.754;6.978;2023-03-14T04:29:26;5.22;;;1.40;;
39524;SDS011;25203;50.754;6.978;2023-03-14T04:31:27;3.15;;;1.23;;
39524;SDS011;25203;50.754;6.978;2023-03-14T04:33:28;3.17;;;1.15;;
39524;SDS011;25203;50.754;6.978;2023-03-14T04:35:30;2.85;;;1.52;;
39524;SDS011;25203;50.754;6.978;2023-03-14T04:37:31;7.30;;;1.40;;
39524;SDS011;25203;50.754;6.978;2023-03-14T04:39:32;5.03;;;1.00;;
39524;SDS011;25203;50.754;6.978;2023-03-14T04:41:32;5.60;;;1.10;;
39524;SDS011;25203;50.754;6.978;2023-03-14T04:43:33;4.15;;;1.15;;
39524;SDS011;25203;50.754;6.978;2023-03-14T04:45:34;4.20;;;1.00;;
39524;SDS011;25203;50.754;6.978;2023-03-14T04:47:34;5.05;;;1.10;;
39524;SDS011;25203;50.754;6.978;2023-03-14T04:49:35;2.63;;;1.02;;
39524;SDS011;25203;50.754;6.978;2023-03-14T04:51:36;3.47;;;1.13;;
39524;SDS011;25203;50.754;6.978;2023-03-14T04:53:36;2.35;;;1.08;;
39524;SDS011;25203;50.754;6.978;2023-03-14T04:55:37;2.80;;;1.20;;
39524;SDS011;25203;50.754;6.978;2023-03-14T04:57:37;3.30;;;0.90;;
39524;SDS011;25203;50.754;6.978;2023-03-14T04:59:38;3.50;;;1.00;;
39524;SDS011;25203;50.754;6.978;2023-03-14T05:01:38;2.25;;;0.60;;
39524;SDS011;25203;50.754;6.978;2023-03-14T05:03:41;2.63;;;0.80;;
39524;SDS011;25203;50.754;6.978;2023-03-14T05:05:41;2.13;;;0.77;;
39524;SDS011;25203;50.754;6.978;2023-03-14T05:07:42;0.45;;;0.45;;
39524;SDS011;25203;50.754;6.978;2023-03-14T05:09:43;2.33;;;0.40;;
39524;SDS011;25203;50.754;6.978;2023-03-14T05:11:44;1.15;;;0.40;;
39524;SDS011;25203;50.754;6.978;2023-03-14T05:13:44;1.20;;;0.40;;
39524;SDS011;25203;50.754;6.978;2023-03-14T05:15:45;0.95;;;0.32;;
39524;SDS011;25203;50.754;6.978;2023-03-14T05:17:45;1.02;;;0.45;;
39524;SDS011;25203;50.754;6.978;2023-03-14T05:19:46;0.50;;;0.50;;
39524;SDS011;25203;50.754;6.978;2023-03-14T05:21:47;1.60;;;0.47;;
39524;SDS011;25203;50.754;6.978;2023-03-14T05:23:47;0.45;;;0.40;;
39524;SDS011;25203;50.754;6.978;2023-03-14T05:25:48;1.33;;;0.50;;
39524;SDS011;25203;50.754;6.978;2023-03-14T05:27:48;0.40;;;0.40;;
39524;SDS011;25203;50.754;6.978;2023-03-14T05:29:49;3.35;;;0.50;;
39524;SDS011;25203;50.754;6.978;2023-03-14T05:31:50;0.38;;;0.30;;
39524;SDS011;25203;50.754;6.978;2023-03-14T05:33:50;0.75;;;0.52;;
39524;SDS011;25203;50.754;6.978;2023-03-14T05:35:51;1.40;;;0.30;;
39524;SDS011;25203;50.754;6.978;2023-03-14T05:37:51;1.02;;;0.40;;
39524;SDS011;25203;50.754;6.978;2023-03-14T05:39:52;1.67;;;0.40;;
39524;SDS011;25203;50.754;6.978;2023-03-14T05:41:53;0.32;;;0.32;;
39524;SDS011;25203;50.754;6.978;2023-03-14T05:43:55;0.63;;;0.30;;
39524;SDS011;25203;50.754;6.978;2023-03-14T05:45:56;5.10;;;0.45;;
39524;SDS011;25203;50.754;6.978;2023-03-14T05:47:56;1.17;;;0.30;;
39524;SDS011;25203;50.754;6.978;2023-03-14T05:49:57;1.48;;;0.73;;
39524;SDS011;25203;50.754;6.978;2023-03-14T05:51:58;0.40;;;0.40;;
39524;SDS011;25203;50.754;6.978;2023-03-14T05:53:58;0.30;;;0.30;;
39524;SDS011;25203;50.754;6.978;2023-03-14T05:55:59;0.70;;;0.35;;
39524;SDS011;25203;50.754;6.978;2023-03-14T05:57:59;0.90;;;0.43;;
39524;SDS011;25203;50.754;6.978;2023-03-14T06:00:00;0.70;;;0.50;;
39524;SDS011;25203;50.754;6.978;2023-03-14T06:02:01;1.35;;;0.30;;
39524;SDS011;25203;50.754;6.978;2023-03-14T06:04:01;0.80;;;0.52;;
39524;SDS011;25203;50.754;6.978;2023-03-14T06:06:02;0.60;;;0.30;;
39524;SDS011;25203;50.754;6.978;2023-03-14T06:08:03;0.50;;;0.45;;
39524;SDS011;25203;50.754;6.978;2023-03-14T06:10:04;1.00;;;0.30;;
39524;SDS011;25203;50.754;6.978;2023-03-14T06:12:05;0.65;;;0.40;;
39524;SDS011;25203;50.754;6.978;2023-03-14T06:14:06;0.75;;;0.40;;
39524;SDS011;25203;50.754;6.978;2023-03-14T06:16:07;1.17;;;0.40;;
39524;SDS011;25203;50.754;6.978;2023-03-14T06:18:08;1.00;;;0.57;;
39524;SDS011;25203;50.754;6.978;2023-03-14T06:20:09;1.20;;;0.30;;
39524;SDS011;25203;50.754;6.978;2023-03-14T06:22:10;0.30;;;0.30;;
39524;SDS011;25203;50.754;6.978;2023-03-14T06:24:10;0.70;;;0.40;;
39524;SDS011;25203;50.754;6.978;2023-03-14T06:26:11;0.47;;;0.35;;
39524;SDS011;25203;50.754;6.978;2023-03-14T06:28:12;0.20;;;0.20;;
39524;SDS011;25203;50.754;6.978;2023-03-14T06:30:12;0.52;;;0.43;;
39524;SDS011;25203;50.754;6.978;2023-03-14T06:32:13;0.30;;;0.30;;
39524;SDS011;25203;50.754;6.978;2023-03-14T06:34:14;0.80;;;0.40;;
39524;SDS011;25203;50.754;6.978;2023-03-14T06:36:14;1.45;;;0.30;;
39524;SDS011;25203;50.754;6.978;2023-03-14T06:38:15;0.25;;;0.25;;
39524;SDS011;25203;50.754;6.978;2023-03-14T06:40:16;0.60;;;0.30;;
39524;SDS011;25203;50.754;6.978;2023-03-14T06:42:17;0.63;;;0.30;;
39524;SDS011;25203;50.754;6.978;2023-03-14T06:44:18;1.98;;;0.35;;
39524;SDS011;25203;50.754;6.978;2023-03-14T06:46:19;0.20;;;0.20;;
39524;SDS011;25203;50.754;6.978;2023-03-14T06:48:19;0.50;;;0.30;;
39524;SDS011;25203;50.754;6.978;2023-03-14T06:50:20;0.80;;;0.30;;
39524;SDS011;25203;50.754;6.978;2023-03-14T06:52:22;0.22;;;0.22;;
39524;SDS011;25203;50.754;6.978;2023-03-14T06:54:22;0.38;;;0.20;;
39524;SDS011;25203;50.754;6.978;2023-03-14T06:56:23;0.20;;;0.20;;
39524;SDS011;25203;50.754;6.978;2023-03-14T06:58:23;0.20;;;0.20;;
39524;SDS011;25203;50.754;6.978;2023-03-14T07:00:24;0.20;;;0.20;;
39524;SDS011;25203;50.754;6.978;2023-03-14T07:02:25;0.43;;;0.40;;
39524;SDS011;25203;50.754;6.978;2023-03-14T07:04:25;0.70;;;0.30;;
39524;SDS011;25203;50.754;6.978;2023-03-14T07:06:26;0.17;;;0.17;;
39524;SDS011;25203;50.754;6.978;2023-03-14T07:08:29;0.28;;;0.22;;
39524;SDS011;25203;50.754;6.978;2023-03-14T07:10:29;0.32;;;0.30;;
39524;SDS011;25203;50.754;6.978;2023-03-14T07:12:30;0.40;;;0.20;;
39524;SDS011;25203;50.754;6.978;2023-03-14T07:14:30;0.32;;;0.30;;
39524;SDS011;25203;50.754;6.978;2023-03-14T07:16:31;0.40;;;0.30;;
39524;SDS011;25203;50.754;6.978;2023-03-14T07:18:33;0.70;;;0.20;;
39524;SDS011;25203;50.754;6.978;2023-03-14T07:20:33;0.38;;;0.25;;
39524;SDS011;25203;50.754;6.978;2023-03-14T07:22:34;0.20;;;0.20;;
39524;SDS011;25203;50.754;6.978;2023-03-14T07:24:34;0.45;;;0.35;;
39524;SDS011;25203;50.754;6.978;2023-03-14T07:26:35;0.22;;;0.20;;
39524;SDS011;25203;50.754;6.978;2023-03-14T07:28:36;0.20;;;0.20;;
39524;SDS011;25203;50.754;6.978;2023-03-14T07:30:36;2.60;;;0.40;;
39524;SDS011;25203;50.754;6.978;2023-03-14T07:32:37;0.30;;;0.30;;
39524;SDS011;25203;50.754;6.978;2023-03-14T07:34:37;0.38;;;0.30;;
39524;SDS011;25203;50.754;6.978;2023-03-14T07:36:38;2.75;;;0.20;;
39524;SDS011;25203;50.754;6.978;2023-03-14T07:38:39;0.65;;;0.30;;
39524;SDS011;25203;50.754;6.978;2023-03-14T07:40:39;1.65;;;0.22;;
39524;SDS011;25203;50.754;6.978;2023-03-14T07:42:41;0.20;;;0.20;;
39524;SDS011;25203;50.754;6.978;2023-03-14T07:44:42;0.15;;;0.15;;
39524;SDS011;25203;50.754;6.978;2023-03-14T07:46:43;0.25;;;0.25;;
39524;SDS011;25203;50.754;6.978;2023-03-14T07:48:43;0.40;;;0.30;;
39524;SDS011;25203;50.754;6.978;2023-03-14T07:50:47;0.45;;;0.20;;
39524;SDS011;25203;50.754;6.978;2023-03-14T07:52:49;0.38;;;0.20;;
39524;SDS011;25203;50.754;6.978;2023-03-14T07:54:50;0.40;;;0.30;;
39524;SDS011;25203;50.754;6.978;2023-03-14T07:56:51;0.20;;;0.20;;
39524;SDS011;25203;50.754;6.978;2023-03-14T07:58:54;0.40;;;0.20;;
39524;SDS011;25203;50.754;6.978;2023-03-14T08:00:55;0.40;;;0.20;;
39524;SDS011;25203;50.754;6.978;2023-03-14T08:02:58;0.10;;;0.10;;
39524;SDS011;25203;50.754;6.978;2023-03-14T08:04:58;0.15;;;0.10;;
39524;SDS011;25203;50.754;6.978;2023-03-14T08:06:59;0.30;;;0.30;;
39524;SDS011;25203;50.754;6.978;2023-03-14T08:09:00;0.30;;;0.30;;
39524;SDS011;25203;50.754;6.978;2023-03-14T08:11:06;1.35;;;0.20;;
39524;SDS011;25203;50.754;6.978;2023-03-14T08:13:10;0.30;;;0.30;;
39524;SDS011;25203;50.754;6.978;2023-03-14T08:15:11;0.20;;;0.20;;
39524;SDS011;25203;50.754;6.978;2023-03-14T08:17:12;0.30;;;0.30;;
39524;SDS011;25203;50.754;6.978;2023-03-14T08:19:12;1.15;;;0.30;;
39524;SDS011;25203;50.754;6.978;2023-03-14T08:21:13;0.20;;;0.20;;
39524;SDS011;25203;50.754;6.978;2023-03-14T08:23:14;0.20;;;0.20;;
39524;SDS011;25203;50.754;6.978;2023-03-14T08:25:14;0.15;;;0.15;;
39524;SDS011;25203;50.754;6.978;2023-03-14T08:27:16;0.20;;;0.20;;
39524;SDS011;25203;50.754;6.978;2023-03-14T08:29:16;0.52;;;0.20;;
39524;SDS011;25203;50.754;6.978;2023-03-14T08:31:17;0.52;;;0.20;;
39524;SDS011;25203;50.754;6.978;2023-03-14T08:33:18;0.20;;;0.20;;
39524;SDS011;25203;50.754;6.978;2023-03-14T08:35:18;0.40;;;0.20;;
39524;SDS011;25203;50.754;6.978;2023-03-14T08:37:19;0.25;;;0.25;;
39524;SDS011;25203;50.754;6.978;2023-03-14T08:39:20;0.17;;;0.17;;
39524;SDS011;25203;50.754;6.978;2023-03-14T08:41:20;0.20;;;0.20;;
39524;SDS011;25203;50.754;6.978;2023-03-14T08:43:21;0.20;;;0.20;;
39524;SDS011;25203;50.754;6.978;2023-03-14T08:45:21;0.20;;;0.20;;
39524;SDS011;25203;50.754;6.978;2023-03-14T08:47:23;0.20;;;0.20;;
39524;SDS011;25203;50.754;6.978;2023-03-14T08:49:24;2.25;;;0.50;;
39524;SDS011;25203;50.754;6.978;2023-03-14T08:51:25;0.40;;;0.30;;
39524;SDS011;25203;50.754;6.978;2023-03-14T08:53:25;1.05;;;0.30;;
39524;SDS011;25203;50.754;6.978;2023-03-14T08:55:26;0.32;;;0.32;;
39524;SDS011;25203;50.754;6.978;2023-03-14T08:57:27;0.40;;;0.25;;
39524;SDS011;25203;50.754;6.978;2023-03-14T08:59:28;0.30;;;0.30;;
39524;SDS011;25203;50.754;6.978;2023-03-14T09:01:28;0.25;;;0.25;;
39524;SDS011;25203;50.754;6.978;2023-03-14T09:03:29;0.38;;;0.38;;
39524;SDS011;25203;50.754;6.978;2023-03-14T09:05:32;0.30;;;0.30;;
39524;SDS011;25203;50.754;6.978;2023-03-14T09:07:34;1.02;;;0.40;;
39524;SDS011;25203;50.754;6.978;2023-03-14T09:09:34;0.28;;;0.28;;
39524;SDS011;25203;50.754;6.978;2023-03-14T09:11:35;2.22;;;0.40;;
39524;SDS011;25203;50.754;6.978;2023-03-14T09:13:36;0.30;;;0.30;;
39524;SDS011;25203;50.754;6.978;2023-03-14T09:15:37;0.38;;;0.30;;
39524;SDS011;25203;50.754;6.978;2023-03-14T09:17:37;0.65;;;0.30;;
39524;SDS011;25203;50.754;6.978;2023-03-14T09:19:38;0.70;;;0.20;;
39524;SDS011;25203;50.754;6.978;2023-03-14T09:21:38;0.50;;;0.40;;
39524;SDS011;25203;50.754;6.978;2023-03-14T09:23:39;0.30;;;0.30;;
39524;SDS011;25203;50.754;6.978;2023-03-14T09:25:40;0.35;;;0.35;;
39524;SDS011;25203;50.754;6.978;2023-03-14T09:27:40;0.43;;;0.40;;
39524;SDS011;25203;50.754;6.978;2023-03-14T09:29:41;1.23;;;0.40;;
39524;SDS011;25203;50.754;6.978;2023-03-14T09:31:42;0.45;;;0.30;;
39524;SDS011;25203;50.754;6.978;2023-03-14T09:33:42;0.30;;;0.30;;
39524;SDS011;25203;50.754;6.978;2023-03-14T09:35:44;0.20;;;0.20;;
39524;SDS011;25203;50.754;6.978;2023-03-14T09:37:45;0.30;;;0.30;;
39524;SDS011;25203;50.754;6.978;2023-03-14T09:39:46;2.65;;;0.40;;
39524;SDS011;25203;50.754;6.978;2023-03-14T09:41:47;0.90;;;0.20;;
39524;SDS011;25203;50.754;6.978;2023-03-14T09:43:52;1.65;;;0.30;;
39524;SDS011;25203;50.754;6.978;2023-03-14T09:46:10;0.65;;;0.40;;
39524;SDS011;25203;50.754;6.978;2023-03-14T09:48:19;0.70;;;0.30;;
39524;SDS011;25203;50.754;6.978;2023-03-14T09:50:27;0.70;;;0.50;;
39524;SDS011;25203;50.754;6.978;2023-03-14T09:52:37;6.63;;;1.25;;
39524;SDS011;25203;50.754;6.978;2023-03-14T09:54:49;1.02;;;0.80;;
39524;SDS011;25203;50.754;6.978;2023-03-14T09:56:51;2.13;;;1.75;;
39524;SDS011;25203;50.754;6.978;2023-03-14T09:58:57;1.55;;;1.45;;
39524;SDS011;25203;50.754;6.978;2023-03-14T10:01:00;2.47;;;1.63;;
39524;SDS011;25203;50.754;6.978;2023-03-14T10:05:14;2.05;;;1.48;;
39524;SDS011;25203;50.754;6.978;2023-03-14T10:07:19;1.63;;;1.52;;
39524;SDS011;25203;50.754;6.978;2023-03-14T10:09:27;1.80;;;1.70;;
39524;SDS011;25203;50.754;6.978;2023-03-14T10:11:29;1.70;;;1.40;;
39524;SDS011;25203;50.754;6.978;2023-03-14T10:13:29;1.10;;;1.10;;
39524;SDS011;25203;50.754;6.978;2023-03-14T10:15:31;2.30;;;1.20;;
39524;SDS011;25203;50.754;6.978;2023-03-14T10:17:41;1.50;;;1.20;;
39524;SDS011;25203;50.754;6.978;2023-03-14T10:21:53;1.30;;;1.20;;
39524;SDS011;25203;50.754;6.978;2023-03-14T10:23:54;1.25;;;1.15;;
39524;SDS011;25203;50.754;6.978;2023-03-14T10:26:16;1.95;;;0.90;;
39524;SDS011;25203;50.754;6.978;2023-03-14T10:28:25;2.05;;;1.05;;
39524;SDS011;25203;50.754;6.978;2023-03-14T10:30:34;1.40;;;1.00;;
39524;SDS011;25203;50.754;6.978;2023-03-14T10:32:44;1.85;;;0.90;;
39524;SDS011;25203;50.754;6.978;2023-03-14T10:35:05;1.40;;;1.00;;
39524;SDS011;25203;50.754;6.978;2023-03-14T10:37:20;2.65;;;1.30;;
39524;SDS011;25203;50.754;6.978;2023-03-14T10:39:30;2.30;;;0.93;;
39524;SDS011;25203;50.754;6.978;2023-03-14T10:41:38;1.27;;;0.80;;
39524;SDS011;25203;50.754;6.978;2023-03-14T10:43:39;0.90;;;0.77;;
39524;SDS011;25203;50.754;6.978;2023-03-14T10:45:41;1.00;;;0.70;;
39524;SDS011;25203;50.754;6.978;2023-03-14T10:47:49;1.35;;;0.80;;
39524;SDS011;25203;50.754;6.978;2023-03-14T10:49:51;2.45;;;0.95;;
39524;SDS011;25203;50.754;6.978;2023-03-14T10:51:51;2.15;;;1.20;;
39524;SDS011;25203;50.754;6.978;2023-03-14T10:54:34;2.25;;;1.00;;
39524;SDS011;25203;50.754;6.978;2023-03-14T10:56:21;0.55;;;0.55;;
39524;SDS011;25203;50.754;6.978;2023-03-14T10:58:27;2.22;;;0.90;;
39524;SDS011;25203;50.754;6.978;2023-03-14T11:00:29;0.93;;;0.90;;
39524;SDS011;25203;50.754;6.978;2023-03-14T11:05:07;3.10;;;0.93;;
39524;SDS011;25203;50.754;6.978;2023-03-14T11:09:39;1.30;;;0.90;;
39524;SDS011;25203;50.754;6.978;2023-03-14T11:11:49;1.00;;;1.00;;
39524;SDS011;25203;50.754;6.978;2023-03-14T11:20:59;1.95;;;1.10;;
39524;SDS011;25203;50.754;6.978;2023-03-14T11:23:28;2.38;;;1.17;;
39524;SDS011;25203;50.754;6.978;2023-03-14T11:32:39;1.98;;;1.38;;
39524;SDS011;25203;50.754;6.978;2023-03-14T11:35:14;1.95;;;1.05;;
39524;SDS011;25203;50.754;6.978;2023-03-14T11:37:28;1.75;;;0.82;;
39524;SDS011;25203;50.754;6.978;2023-03-14T11:39:41;1.52;;;0.80;;
39524;SDS011;25203;50.754;6.978;2023-03-14T11:41:53;1.63;;;0.65;;
39524;SDS011;25203;50.754;6.978;2023-03-14T11:43:57;1.38;;;0.90;;
39524;SDS011;25203;50.754;6.978;2023-03-14T11:46:20;2.08;;;1.13;;
39524;SDS011;25203;50.754;6.978;2023-03-14T11:50:31;3.28;;;1.15;;
39524;SDS011;25203;50.754;6.978;2023-03-14T11:57:19;2.80;;;1.40;;
39524;SDS011;25203;50.754;6.978;2023-03-14T11:59:21;1.92;;;1.17;;
39524;SDS011;25203;50.754;6.978;2023-03-14T12:01:29;2.90;;;1.30;;
39524;SDS011;25203;50.754;6.978;2023-03-14T12:10:41;1.50;;;0.57;;
39524;SDS011;25203;50.754;6.978;2023-03-14T12:12:45;0.22;;;0.22;;
39524;SDS011;25203;50.754;6.978;2023-03-14T12:14:52;0.43;;;0.40;;
39524;SDS011;25203;50.754;6.978;2023-03-14T12:16:56;1.15;;;0.50;;
39524;SDS011;25203;50.754;6.978;2023-03-14T12:19:14;1.00;;;0.43;;
39524;SDS011;25203;50.754;6.978;2023-03-14T12:21:24;1.27;;;0.50;;
39524;SDS011;25203;50.754;6.978;2023-03-14T12:23:50;1.60;;;0.60;;
39524;SDS011;25203;50.754;6.978;2023-03-14T12:32:27;1.58;;;0.88;;
39524;SDS011;25203;50.754;6.978;2023-03-14T12:34:29;3.75;;;1.25;;
39524;SDS011;25203;50.754;6.978;2023-03-14T12:38:56;2.28;;;1.40;;
39524;SDS011;25203;50.754;6.978;2023-03-14T12:43:28;2.90;;;1.05;;
39524;SDS011;25203;50.754;6.978;2023-03-14T12:45:31;4.47;;;1.48;;
39524;SDS011;25203;50.754;6.978;2023-03-14T12:49:33;6.85;;;1.80;;
39524;SDS011;25203;50.754;6.978;2023-03-14T12:51:38;2.92;;;1.63;;
39524;SDS011;25203;50.754;6.978;2023-03-14T12:55:56;3.00;;;1.60;;
39524;SDS011;25203;50.754;6.978;2023-03-14T13:00:23;4.45;;;1.65;;
39524;SDS011;25203;50.754;6.978;2023-03-14T13:02:41;3.75;;;1.55;;
39524;SDS011;25203;50.754;6.978;2023-03-14T13:04:54;2.33;;;1.73;;
39524;SDS011;25203;50.754;6.978;2023-03-14T13:07:02;5.40;;;1.55;;
39524;SDS011;25203;50.754;6.978;2023-03-14T13:11:29;2.33;;;1.63;;
39524;SDS011;25203;50.754;6.978;2023-03-14T13:13:34;5.78;;;1.67;;
39524;SDS011;25203;50.754;6.978;2023-03-14T13:15:41;2.85;;;1.40;;
39524;SDS011;25203;50.754;6.978;2023-03-14T13:17:43;3.33;;;1.50;;
39524;SDS011;25203;50.754;6.978;2023-03-14T13:19:48;1.88;;;1.30;;
39524;SDS011;25203;50.754;6.978;2023-03-14T13:22:05;4.13;;;1.40;;
39524;SDS011;25203;50.754;6.978;2023-03-14T13:24:22;3.90;;;1.30;;
39524;SDS011;25203;50.754;6.978;2023-03-14T13:26:26;5.97;;;1.70;;
39524;SDS011;25203;50.754;6.978;2023-03-14T13:28:53;2.63;;;1.40;;